createdAt,value
2017-11-08T00:00:17.244Z,1011.63
2017-11-08T00:01:17.197Z,1011.65
2017-11-08T00:02:25.384Z,1011.54
2017-11-08T00:03:17.181Z,1011.63
2017-11-08T00:04:17.122Z,1011.60
2017-11-08T00:05:17.103Z,1011.59
2017-11-08T00:06:17.088Z,1011.61
2017-11-08T00:07:17.057Z,1011.56
2017-11-08T00:08:17.081Z,1011.58
2017-11-08T00:09:17.015Z,1011.60
2017-11-08T00:10:16.989Z,1011.57
2017-11-08T00:11:16.966Z,1011.60
2017-11-08T00:12:16.950Z,1011.58
2017-11-08T00:13:16.967Z,1011.61
2017-11-08T00:14:16.900Z,1011.61
2017-11-08T00:15:16.887Z,1011.62
2017-11-08T00:16:16.855Z,1011.59
2017-11-08T00:17:16.834Z,1011.56
2017-11-08T00:18:16.860Z,1011.59
2017-11-08T00:19:16.794Z,1011.61
2017-11-08T00:20:16.772Z,1011.64
2017-11-08T00:21:16.753Z,1011.62
2017-11-08T00:22:26.419Z,1011.53
2017-11-08T00:23:16.755Z,1011.56
2017-11-08T00:24:16.679Z,1011.57
2017-11-08T00:25:16.662Z,1011.60
2017-11-08T00:26:16.642Z,1011.60
2017-11-08T00:27:16.615Z,1011.58
2017-11-08T00:28:16.636Z,1011.58
2017-11-08T00:29:16.572Z,1011.60
2017-11-08T00:30:16.546Z,1011.60
2017-11-08T00:31:16.525Z,1011.61
2017-11-08T00:32:16.503Z,1011.60
2017-11-08T00:33:16.526Z,1011.59
2017-11-08T00:34:16.464Z,1011.62
2017-11-08T00:35:16.441Z,1011.61
2017-11-08T00:36:16.415Z,1011.59
2017-11-08T00:37:16.398Z,1011.63
2017-11-08T00:38:16.405Z,1011.56
2017-11-08T00:39:16.353Z,1011.57
2017-11-08T00:40:16.333Z,1011.53
2017-11-08T00:41:16.301Z,1011.53
2017-11-08T00:42:16.285Z,1011.54
2017-11-08T00:43:16.303Z,1011.52
2017-11-08T00:44:16.239Z,1011.48
2017-11-08T00:45:16.214Z,1011.52
2017-11-08T00:46:16.193Z,1011.52
2017-11-08T00:47:16.176Z,1011.56
2017-11-08T00:48:16.195Z,1011.49
2017-11-08T00:49:16.134Z,1011.55
2017-11-08T00:50:16.104Z,1011.55
2017-11-08T00:51:16.083Z,1011.57
2017-11-08T00:52:16.061Z,1011.57
2017-11-08T00:53:16.081Z,1011.59
2017-11-08T00:54:16.017Z,1011.55
2017-11-08T00:55:16.003Z,1011.54
2017-11-08T00:56:16.019Z,1011.53
2017-11-08T00:57:15.953Z,1011.54
2017-11-08T00:58:15.931Z,1011.53
2017-11-08T00:59:15.908Z,1011.45
2017-11-08T01:00:15.885Z,1011.49
2017-11-08T01:01:15.912Z,1011.52
2017-11-08T01:02:15.844Z,1011.52
2017-11-08T01:03:15.818Z,1011.54
2017-11-08T01:04:15.797Z,1011.57
2017-11-08T01:05:15.776Z,1011.57
2017-11-08T01:06:15.786Z,1011.57
2017-11-08T01:07:15.765Z,1011.56
2017-11-08T01:08:15.707Z,1011.61
2017-11-08T01:09:15.726Z,1011.55
2017-11-08T01:10:15.675Z,1011.60
2017-11-08T01:11:15.642Z,1011.59
2017-11-08T01:12:15.620Z,1011.61
2017-11-08T01:13:15.599Z,1011.53
2017-11-08T01:14:15.622Z,1011.54
2017-11-08T01:15:15.573Z,1011.54
2017-11-08T01:16:15.530Z,1011.61
2017-11-08T01:17:15.517Z,1011.56
2017-11-08T01:18:15.492Z,1011.55
2017-11-08T01:19:15.527Z,1011.49
2017-11-08T01:20:15.442Z,1011.54
2017-11-08T01:21:15.422Z,1011.53
2017-11-08T01:22:15.404Z,1011.50
2017-11-08T01:23:15.378Z,1011.49
2017-11-08T01:24:15.409Z,1011.48
2017-11-08T01:25:15.336Z,1011.45
2017-11-08T01:26:23.957Z,1011.33
2017-11-08T01:27:25.002Z,1011.34
2017-11-08T01:28:15.279Z,1011.42
2017-11-08T01:29:15.286Z,1011.44
2017-11-08T01:30:15.228Z,1011.46
2017-11-08T01:31:15.202Z,1011.42
2017-11-08T01:32:15.224Z,1011.36
2017-11-08T01:33:15.156Z,1011.39
2017-11-08T01:34:15.134Z,1011.42
2017-11-08T01:35:15.121Z,1011.40
2017-11-08T01:36:15.094Z,1011.39
2017-11-08T01:37:15.113Z,1011.42
2017-11-08T01:38:15.047Z,1011.42
2017-11-08T01:39:15.024Z,1011.43
2017-11-08T01:40:15.001Z,1011.43
2017-11-08T01:41:14.980Z,1011.45
2017-11-08T01:42:15.010Z,1011.40
2017-11-08T01:43:24.537Z,1011.34
2017-11-08T01:44:24.568Z,1011.35
2017-11-08T01:45:14.892Z,1011.39
2017-11-08T01:46:14.867Z,1011.40
2017-11-08T01:47:14.906Z,1011.46
2017-11-08T01:48:14.833Z,1011.39
2017-11-08T01:49:14.818Z,1011.38
2017-11-08T01:50:14.782Z,1011.38
2017-11-08T01:51:14.760Z,1011.40
2017-11-08T01:52:14.779Z,1011.40
2017-11-08T01:53:14.714Z,1011.38
2017-11-08T01:54:14.712Z,1011.39
2017-11-08T01:55:14.674Z,1011.44
2017-11-08T01:56:14.657Z,1011.47
2017-11-08T01:57:14.666Z,1011.47
2017-11-08T01:58:14.650Z,1011.48
2017-11-08T01:59:14.582Z,1011.43
2017-11-08T02:00:14.561Z,1011.49
2017-11-08T02:01:14.545Z,1011.52
2017-11-08T02:02:14.534Z,1011.51
2017-11-08T02:03:14.540Z,1011.54
2017-11-08T02:04:14.475Z,1011.55
2017-11-08T02:05:14.453Z,1011.54
2017-11-08T02:06:14.433Z,1011.54
2017-11-08T02:07:14.408Z,1011.57
2017-11-08T02:08:14.432Z,1011.58
2017-11-08T02:09:14.381Z,1011.54
2017-11-08T02:10:14.353Z,1011.55
2017-11-08T02:11:14.321Z,1011.54
2017-11-08T02:12:14.298Z,1011.56
2017-11-08T02:13:14.315Z,1011.59
2017-11-08T02:14:14.258Z,1011.56
2017-11-08T02:15:14.288Z,1011.60
2017-11-08T02:16:14.214Z,1011.66
2017-11-08T02:17:14.194Z,1011.66
2017-11-08T02:18:14.168Z,1011.65
2017-11-08T02:19:14.145Z,1011.66
2017-11-08T02:20:14.162Z,1011.70
2017-11-08T02:21:14.114Z,1011.66
2017-11-08T02:22:14.084Z,1011.65
2017-11-08T02:23:14.058Z,1011.67
2017-11-08T02:24:14.036Z,1011.67
2017-11-08T02:25:14.048Z,1011.66
2017-11-08T02:26:13.995Z,1011.64
2017-11-08T02:27:13.969Z,1011.66
2017-11-08T02:28:13.947Z,1011.70
2017-11-08T02:29:13.950Z,1011.71
2017-11-08T02:30:13.961Z,1011.66
2017-11-08T02:31:23.612Z,1011.67
2017-11-08T02:32:13.861Z,1011.71
2017-11-08T02:33:13.838Z,1011.70
2017-11-08T02:34:13.835Z,1011.74
2017-11-08T02:35:21.696Z,1011.65
2017-11-08T02:36:13.778Z,1011.75
2017-11-08T02:37:13.752Z,1011.73
2017-11-08T02:38:13.726Z,1011.74
2017-11-08T02:39:13.704Z,1011.74
2017-11-08T02:40:13.716Z,1011.71
2017-11-08T02:41:13.661Z,1011.66
2017-11-08T02:42:13.647Z,1011.68
2017-11-08T02:43:13.666Z,1011.64
2017-11-08T02:44:13.595Z,1011.61
2017-11-08T02:45:13.569Z,1011.55
2017-11-08T02:46:13.547Z,1011.54
2017-11-08T02:47:13.526Z,1011.51
2017-11-08T02:48:13.547Z,1011.48
2017-11-08T02:49:13.534Z,1011.53
2017-11-08T02:50:13.461Z,1011.44
2017-11-08T02:51:13.438Z,1011.44
2017-11-08T02:52:13.414Z,1011.45
2017-11-08T02:53:13.392Z,1011.41
2017-11-08T02:54:13.432Z,1011.37
2017-11-08T02:55:13.349Z,1011.35
2017-11-08T02:56:13.331Z,1011.30
2017-11-08T02:57:13.303Z,1011.29
2017-11-08T02:58:13.288Z,1011.31
2017-11-08T02:59:13.297Z,1011.26
2017-11-08T03:00:13.274Z,1011.27
2017-11-08T03:01:13.222Z,1011.19
2017-11-08T03:02:13.198Z,1011.21
2017-11-08T03:03:13.218Z,1011.17
2017-11-08T03:04:13.165Z,1011.19
2017-11-08T03:05:13.174Z,1011.15
2017-11-08T03:06:13.109Z,1011.15
2017-11-08T03:07:13.093Z,1011.14
2017-11-08T03:08:13.065Z,1011.14
2017-11-08T03:09:13.051Z,1011.13
2017-11-08T03:10:13.063Z,1011.15
2017-11-08T03:11:13.005Z,1011.10
2017-11-08T03:12:12.976Z,1011.11
2017-11-08T03:13:12.957Z,1011.08
2017-11-08T03:14:12.934Z,1011.08
2017-11-08T03:15:12.962Z,1011.08
2017-11-08T03:16:12.902Z,1011.09
2017-11-08T03:17:12.878Z,1011.12
2017-11-08T03:18:12.845Z,1011.07
2017-11-08T03:19:12.829Z,1011.10
2017-11-08T03:20:12.853Z,1011.13
2017-11-08T03:21:12.792Z,1011.12
2017-11-08T03:22:12.765Z,1011.13
2017-11-08T03:23:12.737Z,1011.15
2017-11-08T03:24:12.714Z,1011.14
2017-11-08T03:25:12.738Z,1011.14
2017-11-08T03:26:20.732Z,1011.08
2017-11-08T03:27:12.651Z,1011.07
2017-11-08T03:28:12.627Z,1011.12
2017-11-08T03:29:12.614Z,1011.07
2017-11-08T03:30:12.626Z,1011.12
2017-11-08T03:31:12.560Z,1011.08
2017-11-08T03:32:12.538Z,1011.07
2017-11-08T03:33:12.515Z,1011.09
2017-11-08T03:34:12.493Z,1011.04
2017-11-08T03:35:20.269Z,1010.94
2017-11-08T03:36:12.485Z,1010.99
2017-11-08T03:37:12.430Z,1010.98
2017-11-08T03:38:12.407Z,1010.98
2017-11-08T03:39:12.383Z,1010.96
2017-11-08T03:40:12.364Z,1010.99
2017-11-08T03:41:12.388Z,1010.99
2017-11-08T03:42:12.321Z,1010.98
2017-11-08T03:43:12.296Z,1011.02
2017-11-08T03:44:12.275Z,1011.02
2017-11-08T03:45:12.259Z,1011.00
2017-11-08T03:46:12.275Z,1011.01
2017-11-08T03:47:12.206Z,1011.08
2017-11-08T03:48:12.181Z,1011.03
2017-11-08T03:49:12.165Z,1011.08
2017-11-08T03:50:12.140Z,1011.03
2017-11-08T03:51:12.173Z,1011.06
2017-11-08T03:52:12.095Z,1011.03
2017-11-08T03:53:12.082Z,1011.03
2017-11-08T03:54:12.052Z,1011.06
2017-11-08T03:55:12.030Z,1011.08
2017-11-08T03:56:12.047Z,1011.07
2017-11-08T03:57:11.987Z,1011.14
2017-11-08T03:58:12.006Z,1011.08
2017-11-08T03:59:11.941Z,1011.07
2017-11-08T04:00:11.919Z,1011.08
2017-11-08T04:01:11.900Z,1011.13
2017-11-08T04:02:11.892Z,1011.15
2017-11-08T04:03:11.898Z,1011.11
2017-11-08T04:04:11.832Z,1011.08
2017-11-08T04:05:11.808Z,1011.07
2017-11-08T04:06:11.793Z,1011.07
2017-11-08T04:07:11.769Z,1011.01
2017-11-08T04:08:11.786Z,1011.01
2017-11-08T04:09:11.726Z,1011.02
2017-11-08T04:10:11.762Z,1011.03
2017-11-08T04:11:11.677Z,1011.02
2017-11-08T04:12:11.656Z,1011.04
2017-11-08T04:13:11.648Z,1011.01
2017-11-08T04:14:11.610Z,1011.01
2017-11-08T04:15:11.625Z,1011.07
2017-11-08T04:16:11.608Z,1011.03
2017-11-08T04:17:21.251Z,1011.00
2017-11-08T04:18:11.523Z,1011.11
2017-11-08T04:19:11.507Z,1011.12
2017-11-08T04:20:11.479Z,1011.15
2017-11-08T04:21:11.505Z,1011.19
2017-11-08T04:22:11.446Z,1011.20
2017-11-08T04:23:11.415Z,1011.15
2017-11-08T04:24:11.434Z,1011.20
2017-11-08T04:25:11.374Z,1011.13
2017-11-08T04:26:11.352Z,1011.17
2017-11-08T04:27:11.333Z,1011.18
2017-11-08T04:28:11.305Z,1011.25
2017-11-08T04:29:11.329Z,1011.22
2017-11-08T04:30:11.261Z,1011.26
2017-11-08T04:31:11.237Z,1011.27
2017-11-08T04:32:11.219Z,1011.24
2017-11-08T04:33:11.192Z,1011.30
2017-11-08T04:34:11.264Z,1011.28
2017-11-08T04:35:11.148Z,1011.31
2017-11-08T04:36:11.136Z,1011.25
2017-11-08T04:37:11.105Z,1011.29
2017-11-08T04:38:11.116Z,1011.27
2017-11-08T04:39:11.084Z,1011.24
2017-11-08T04:40:11.061Z,1011.23
2017-11-08T04:41:11.060Z,1011.22
2017-11-08T04:42:10.995Z,1011.25
2017-11-08T04:43:11.019Z,1011.23
2017-11-08T04:44:10.957Z,1011.23
2017-11-08T04:45:10.926Z,1011.21
2017-11-08T04:46:10.913Z,1011.25
2017-11-08T04:47:10.889Z,1011.30
2017-11-08T04:48:10.905Z,1011.35
2017-11-08T04:49:10.882Z,1011.33
2017-11-08T04:50:10.824Z,1011.31
2017-11-08T04:51:10.799Z,1011.33
2017-11-08T04:52:10.792Z,1011.27
2017-11-08T04:53:10.774Z,1011.25
2017-11-08T04:54:10.771Z,1011.23
2017-11-08T04:55:10.720Z,1011.14
2017-11-08T04:56:10.707Z,1011.16
2017-11-08T04:57:10.662Z,1011.13
2017-11-08T04:58:10.649Z,1011.16
2017-11-08T04:59:10.671Z,1011.18
2017-11-08T05:00:10.597Z,1011.26
2017-11-08T05:01:10.582Z,1011.31
2017-11-08T05:02:10.560Z,1011.28
2017-11-08T05:03:10.533Z,1011.31
2017-11-08T05:04:10.557Z,1011.32
2017-11-08T05:05:10.488Z,1011.29
2017-11-08T05:06:10.467Z,1011.22
2017-11-08T05:07:10.451Z,1011.21
2017-11-08T05:08:20.291Z,1011.14
2017-11-08T05:09:10.456Z,1011.20
2017-11-08T05:10:10.391Z,1011.24
2017-11-08T05:11:10.358Z,1011.24
2017-11-08T05:12:10.335Z,1011.26
2017-11-08T05:13:10.315Z,1011.19
2017-11-08T05:14:10.342Z,1011.26
2017-11-08T05:15:10.269Z,1011.28
2017-11-08T05:16:10.247Z,1011.38
2017-11-08T05:17:10.241Z,1011.34
2017-11-08T05:18:10.226Z,1011.35
2017-11-08T05:19:10.238Z,1011.30
2017-11-08T05:20:10.157Z,1011.27
2017-11-08T05:21:10.155Z,1011.28
2017-11-08T05:22:10.115Z,1011.24
2017-11-08T05:23:10.100Z,1011.24
2017-11-08T05:24:10.106Z,1011.27
2017-11-08T05:25:10.095Z,1011.32
2017-11-08T05:26:10.029Z,1011.41
2017-11-08T05:27:10.006Z,1011.40
2017-11-08T05:28:09.992Z,1011.44
2017-11-08T05:29:09.970Z,1011.40
2017-11-08T05:30:09.980Z,1011.33
2017-11-08T05:31:09.953Z,1011.28
2017-11-08T05:32:09.894Z,1011.25
2017-11-08T05:33:09.907Z,1011.15
2017-11-08T05:34:09.849Z,1011.07
2017-11-08T05:35:09.876Z,1011.03
2017-11-08T05:36:09.850Z,1010.97
2017-11-08T05:37:09.787Z,1010.96
2017-11-08T05:38:09.796Z,1010.99
2017-11-08T05:39:09.745Z,1011.06
2017-11-08T05:40:09.717Z,1011.09
2017-11-08T05:41:09.732Z,1011.06
2017-11-08T05:42:09.723Z,1011.02
2017-11-08T05:43:09.659Z,1010.95
2017-11-08T05:44:19.328Z,1010.80
2017-11-08T05:45:09.610Z,1010.91
2017-11-08T05:46:09.594Z,1010.93
2017-11-08T05:47:09.597Z,1010.95
2017-11-08T05:48:09.540Z,1010.92
2017-11-08T05:49:09.526Z,1010.91
2017-11-08T05:50:09.538Z,1010.82
2017-11-08T05:51:09.487Z,1010.77
2017-11-08T05:52:09.452Z,1010.74
2017-11-08T05:53:09.435Z,1010.75
2017-11-08T05:54:09.412Z,1010.79
2017-11-08T05:55:09.440Z,1010.94
2017-11-08T05:56:09.372Z,1010.95
2017-11-08T05:57:09.340Z,1011.00
2017-11-08T05:58:09.325Z,1011.00
2017-11-08T05:59:09.298Z,1010.98
2017-11-08T06:00:09.309Z,1011.00
2017-11-08T06:01:09.307Z,1011.10
2017-11-08T06:02:09.499Z,1011.07
2017-11-08T06:03:09.228Z,1011.12
2017-11-08T06:04:09.389Z,1011.09
2017-11-08T06:05:09.264Z,1011.02
2017-11-08T06:06:09.421Z,1011.07
2017-11-08T06:07:09.149Z,1011.11
2017-11-08T06:08:09.426Z,1011.11
2017-11-08T06:09:09.324Z,1011.22
2017-11-08T06:10:09.212Z,1011.26
2017-11-08T06:11:09.137Z,1011.30
2017-11-08T06:12:09.084Z,1011.30
2017-11-08T06:13:09.174Z,1011.32
2017-11-08T06:14:09.772Z,1011.36
2017-11-08T06:15:09.068Z,1011.31
2017-11-08T06:16:09.052Z,1011.32
2017-11-08T06:17:08.901Z,1011.28
2017-11-08T06:18:08.881Z,1011.25
2017-11-08T06:19:08.859Z,1011.28
2017-11-08T06:20:08.838Z,1011.34
2017-11-08T06:21:08.870Z,1011.30
2017-11-08T06:22:08.792Z,1011.28
2017-11-08T06:23:08.819Z,1011.27
2017-11-08T06:24:08.803Z,1011.26
2017-11-08T06:25:08.769Z,1011.24
2017-11-08T06:26:08.991Z,1011.30
2017-11-08T06:27:08.766Z,1011.26
2017-11-08T06:28:08.729Z,1011.32
2017-11-08T06:29:08.635Z,1011.30
2017-11-08T06:30:08.694Z,1011.27
2017-11-08T06:31:08.710Z,1011.30
2017-11-08T06:32:08.571Z,1011.37
2017-11-08T06:33:18.390Z,1011.29
2017-11-08T06:34:08.562Z,1011.38
2017-11-08T06:35:09.186Z,1011.44
2017-11-08T06:36:08.483Z,1011.48
2017-11-08T06:37:08.460Z,1011.47
2017-11-08T06:38:08.441Z,1011.49
2017-11-08T06:39:08.417Z,1011.49
2017-11-08T06:40:08.436Z,1011.47
2017-11-08T06:41:08.423Z,1011.46
2017-11-08T06:42:08.350Z,1011.50
2017-11-08T06:43:08.336Z,1011.52
2017-11-08T06:44:08.311Z,1011.55
2017-11-08T06:45:08.504Z,1011.58
2017-11-08T06:46:08.260Z,1011.55
2017-11-08T06:47:08.238Z,1011.57
2017-11-08T06:48:08.217Z,1011.54
2017-11-08T06:49:08.197Z,1011.58
2017-11-08T06:50:08.220Z,1011.61
2017-11-08T06:51:08.159Z,1011.67
2017-11-08T06:52:08.130Z,1011.65
2017-11-08T06:53:08.107Z,1011.65
2017-11-08T06:54:08.091Z,1011.71
2017-11-08T06:55:08.107Z,1011.72
2017-11-08T06:56:08.041Z,1011.78
2017-11-08T06:57:08.019Z,1011.78
2017-11-08T06:58:07.999Z,1011.81
2017-11-08T06:59:07.986Z,1011.76
2017-11-08T07:00:07.997Z,1011.75
2017-11-08T07:01:07.932Z,1011.76
2017-11-08T07:02:07.911Z,1011.74
2017-11-08T07:03:07.900Z,1011.70
2017-11-08T07:04:07.871Z,1011.71
2017-11-08T07:05:07.879Z,1011.73
2017-11-08T07:06:07.866Z,1011.79
2017-11-08T07:07:07.828Z,1011.80
2017-11-08T07:08:07.778Z,1011.82
2017-11-08T07:09:07.808Z,1011.87
2017-11-08T07:10:17.406Z,1011.79
2017-11-08T07:11:07.767Z,1011.82
2017-11-08T07:12:07.695Z,1011.83
2017-11-08T07:13:07.673Z,1011.86
2017-11-08T07:14:07.652Z,1011.88
2017-11-08T07:15:07.626Z,1011.87
2017-11-08T07:16:07.643Z,1011.95
2017-11-08T07:17:07.618Z,1011.97
2017-11-08T07:18:07.560Z,1011.91
2017-11-08T07:19:07.537Z,1011.99
2017-11-08T07:20:07.518Z,1011.99
2017-11-08T07:21:07.543Z,1012.03
2017-11-08T07:22:07.477Z,1012.06
2017-11-08T07:23:07.462Z,1012.07
2017-11-08T07:24:07.434Z,1012.08
2017-11-08T07:25:07.410Z,1012.09
2017-11-08T07:26:07.418Z,1012.12
2017-11-08T07:27:07.409Z,1012.14
2017-11-08T07:28:07.349Z,1012.13
2017-11-08T07:29:07.325Z,1012.11
2017-11-08T07:30:07.300Z,1012.18
2017-11-08T07:31:07.280Z,1012.18
2017-11-08T07:32:07.297Z,1012.19
2017-11-08T07:33:07.236Z,1012.25
2017-11-08T07:34:07.226Z,1012.24
2017-11-08T07:35:07.193Z,1012.19
2017-11-08T07:36:07.166Z,1012.17
2017-11-08T07:37:07.193Z,1012.20
2017-11-08T07:38:07.129Z,1012.20
2017-11-08T07:39:07.105Z,1012.22
2017-11-08T07:40:07.084Z,1012.24
2017-11-08T07:41:07.069Z,1012.24
2017-11-08T07:42:07.084Z,1012.23
2017-11-08T07:43:07.016Z,1012.18
2017-11-08T07:44:07.001Z,1012.20
2017-11-08T07:45:07.027Z,1012.14
2017-11-08T07:46:06.956Z,1012.09
2017-11-08T07:47:06.979Z,1012.07
2017-11-08T07:48:06.910Z,1012.03
2017-11-08T07:49:06.888Z,1012.06
2017-11-08T07:50:06.901Z,1012.03
2017-11-08T07:51:06.874Z,1012.10
2017-11-08T07:52:06.822Z,1012.04
2017-11-08T07:53:06.807Z,1012.05
2017-11-08T07:54:06.784Z,1012.02
2017-11-08T07:55:06.765Z,1011.96
2017-11-08T07:56:06.772Z,1011.96
2017-11-08T07:57:06.749Z,1012.03
2017-11-08T07:58:06.709Z,1012.11
2017-11-08T07:59:06.669Z,1012.19
2017-11-08T08:00:06.698Z,1012.23
2017-11-08T08:01:06.677Z,1012.30
2017-11-08T08:02:06.644Z,1012.25
2017-11-08T08:03:06.581Z,1012.27
2017-11-08T08:04:06.585Z,1012.28
2017-11-08T08:05:06.587Z,1012.34
2017-11-08T08:06:06.522Z,1012.35
2017-11-08T08:07:06.498Z,1012.40
2017-11-08T08:08:06.483Z,1012.41
2017-11-08T08:09:06.464Z,1012.38
2017-11-08T08:10:06.475Z,1012.33
2017-11-08T08:11:06.417Z,1012.27
2017-11-08T08:12:06.395Z,1012.29
2017-11-08T08:13:06.374Z,1012.31
2017-11-08T08:14:06.403Z,1012.29
2017-11-08T08:15:06.324Z,1012.32
2017-11-08T08:16:06.317Z,1012.33
2017-11-08T08:17:06.286Z,1012.32
2017-11-08T08:18:06.265Z,1012.35
2017-11-08T08:19:06.280Z,1012.32
2017-11-08T08:20:06.221Z,1012.36
2017-11-08T08:21:06.202Z,1012.38
2017-11-08T08:22:06.182Z,1012.40
2017-11-08T08:23:06.209Z,1012.45
2017-11-08T08:24:06.139Z,1012.44
2017-11-08T08:25:06.119Z,1012.47
2017-11-08T08:26:06.122Z,1012.51
2017-11-08T08:27:06.074Z,1012.45
2017-11-08T08:28:06.098Z,1012.48
2017-11-08T08:29:06.027Z,1012.53
2017-11-08T08:30:06.011Z,1012.51
2017-11-08T08:31:06.002Z,1012.55
2017-11-08T08:32:05.964Z,1012.57
2017-11-08T08:33:05.979Z,1012.54
2017-11-08T08:34:05.917Z,1012.53
2017-11-08T08:35:05.918Z,1012.58
2017-11-08T08:36:05.913Z,1012.55
2017-11-08T08:37:05.855Z,1012.61
2017-11-08T08:38:05.885Z,1012.62
2017-11-08T08:39:05.826Z,1012.63
2017-11-08T08:40:05.796Z,1012.68
2017-11-08T08:41:05.770Z,1012.71
2017-11-08T08:42:05.751Z,1012.69
2017-11-08T08:43:05.767Z,1012.68
2017-11-08T08:44:05.716Z,1012.70
2017-11-08T08:45:15.447Z,1012.63
2017-11-08T08:46:05.701Z,1012.70
2017-11-08T08:47:05.642Z,1012.66
2017-11-08T08:48:05.621Z,1012.60
2017-11-08T08:49:05.605Z,1012.61
2017-11-08T08:50:05.613Z,1012.58
2017-11-08T08:51:05.602Z,1012.59
2017-11-08T08:52:05.537Z,1012.67
2017-11-08T08:53:05.518Z,1012.68
2017-11-08T08:54:05.504Z,1012.73
2017-11-08T08:55:05.476Z,1012.76
2017-11-08T08:56:05.491Z,1012.73
2017-11-08T08:57:05.435Z,1012.72
2017-11-08T08:58:05.413Z,1012.70
2017-11-08T08:59:05.391Z,1012.70
2017-11-08T09:00:05.401Z,1012.69
2017-11-08T09:01:05.350Z,1012.73
2017-11-08T09:02:05.369Z,1012.77
2017-11-08T09:03:05.303Z,1012.85
2017-11-08T09:04:05.291Z,1012.82
2017-11-08T09:05:05.267Z,1012.82
2017-11-08T09:06:05.238Z,1012.86
2017-11-08T09:07:13.541Z,1012.82
2017-11-08T09:08:05.200Z,1012.84
2017-11-08T09:09:05.173Z,1012.87
2017-11-08T09:10:05.151Z,1012.85
2017-11-08T09:11:05.134Z,1012.88
2017-11-08T09:12:05.113Z,1012.88
2017-11-08T09:13:05.127Z,1012.90
2017-11-08T09:14:05.070Z,1012.91
2017-11-08T09:15:05.052Z,1012.94
2017-11-08T09:16:05.041Z,1012.95
2017-11-08T09:17:05.017Z,1012.98
2017-11-08T09:18:05.025Z,1013.00
2017-11-08T09:19:04.962Z,1013.00
2017-11-08T09:20:04.943Z,1012.98
2017-11-08T09:21:04.922Z,1012.88
2017-11-08T09:22:04.917Z,1012.83
2017-11-08T09:23:04.914Z,1012.79
2017-11-08T09:24:04.855Z,1012.74
2017-11-08T09:25:04.838Z,1012.75
2017-11-08T09:26:04.848Z,1012.82
2017-11-08T09:27:04.788Z,1012.83
2017-11-08T09:28:04.783Z,1012.88
2017-11-08T09:29:04.784Z,1012.86
2017-11-08T09:30:04.733Z,1012.82
2017-11-08T09:31:04.707Z,1012.72
2017-11-08T09:32:04.685Z,1012.70
2017-11-08T09:33:04.663Z,1012.74
2017-11-08T09:34:04.680Z,1012.74
2017-11-08T09:35:04.620Z,1012.66
2017-11-08T09:36:04.634Z,1012.72
2017-11-08T09:37:04.580Z,1012.75
2017-11-08T09:38:04.573Z,1012.75
2017-11-08T09:39:04.540Z,1012.80
2017-11-08T09:40:04.566Z,1012.83
2017-11-08T09:41:04.499Z,1012.79
2017-11-08T09:42:04.473Z,1012.78
2017-11-08T09:43:04.451Z,1012.79
2017-11-08T09:44:04.432Z,1012.79
2017-11-08T09:45:04.472Z,1012.80
2017-11-08T09:46:04.388Z,1012.81
2017-11-08T09:47:04.411Z,1012.81
2017-11-08T09:48:04.343Z,1012.90
2017-11-08T09:49:04.325Z,1012.90
2017-11-08T09:50:04.316Z,1012.93
2017-11-08T09:51:04.289Z,1012.94
2017-11-08T09:52:04.303Z,1012.93
2017-11-08T09:53:04.243Z,1012.91
2017-11-08T09:54:04.223Z,1012.94
2017-11-08T09:55:04.200Z,1012.95
2017-11-08T09:56:04.189Z,1012.98
2017-11-08T09:57:04.203Z,1012.95
2017-11-08T09:58:04.138Z,1012.99
2017-11-08T09:59:04.118Z,1012.95
2017-11-08T10:00:04.130Z,1013.00
2017-11-08T10:01:04.105Z,1013.07
2017-11-08T10:02:04.092Z,1013.07
2017-11-08T10:03:04.040Z,1013.12
2017-11-08T10:04:04.009Z,1013.04
2017-11-08T10:05:04.025Z,1013.08
2017-11-08T10:06:03.969Z,1013.08
2017-11-08T10:07:03.965Z,1013.14
2017-11-08T10:08:03.927Z,1013.12
2017-11-08T10:09:03.953Z,1013.13
2017-11-08T10:10:03.953Z,1013.16
2017-11-08T10:11:03.865Z,1013.11
2017-11-08T10:12:03.854Z,1013.09
2017-11-08T10:13:03.887Z,1013.09
2017-11-08T10:14:03.811Z,1013.06
2017-11-08T10:15:03.848Z,1013.10
2017-11-08T10:16:03.764Z,1013.06
2017-11-08T10:17:03.740Z,1013.06
2017-11-08T10:18:03.717Z,1013.05
2017-11-08T10:19:03.712Z,1013.06
2017-11-08T10:20:03.719Z,1013.07
2017-11-08T10:21:03.659Z,1013.01
2017-11-08T10:22:03.638Z,1013.00
2017-11-08T10:23:03.614Z,1013.05
2017-11-08T10:24:03.634Z,1013.07
2017-11-08T10:25:03.591Z,1013.10
2017-11-08T10:26:03.552Z,1013.16
2017-11-08T10:27:03.571Z,1013.14
2017-11-08T10:28:03.511Z,1013.09
2017-11-08T10:29:03.503Z,1013.11
2017-11-08T10:30:03.488Z,1013.12
2017-11-08T10:31:03.452Z,1013.09
2017-11-08T10:32:03.486Z,1013.06
2017-11-08T10:33:03.408Z,1013.09
2017-11-08T10:34:03.385Z,1013.09
2017-11-08T10:35:03.380Z,1013.06
2017-11-08T10:36:03.350Z,1013.07
2017-11-08T10:37:03.369Z,1013.01
2017-11-08T10:38:03.304Z,1012.99
2017-11-08T10:39:03.290Z,1012.95
2017-11-08T10:40:03.319Z,1012.90
2017-11-08T10:41:03.264Z,1012.91
2017-11-08T10:42:03.215Z,1012.96
2017-11-08T10:43:03.168Z,1012.98
2017-11-08T10:44:03.145Z,1012.96
2017-11-08T10:45:03.177Z,1013.07
2017-11-08T10:46:03.117Z,1013.05
2017-11-08T10:47:03.086Z,1013.04
2017-11-08T10:48:03.067Z,1013.03
2017-11-08T10:49:03.046Z,1013.07
2017-11-08T10:50:03.064Z,1013.07
2017-11-08T10:51:03.005Z,1012.99
2017-11-08T10:52:03.019Z,1013.01
2017-11-08T10:53:02.963Z,1012.97
2017-11-08T10:54:02.941Z,1013.00
2017-11-08T10:55:02.972Z,1013.05
2017-11-08T10:56:02.900Z,1013.06
2017-11-08T10:57:02.881Z,1013.08
2017-11-08T10:58:02.860Z,1013.07
2017-11-08T10:59:02.840Z,1013.05
2017-11-08T11:00:02.870Z,1013.04
2017-11-08T11:01:02.803Z,1012.99
2017-11-08T11:02:02.782Z,1013.00
2017-11-08T11:03:02.780Z,1012.98
2017-11-08T11:04:02.776Z,1013.00
2017-11-08T11:05:02.737Z,1013.01
2017-11-08T11:06:02.746Z,1013.00
2017-11-08T11:07:02.678Z,1012.95
2017-11-08T11:08:02.657Z,1012.94
2017-11-08T11:09:02.643Z,1012.90
2017-11-08T11:10:02.621Z,1012.96
2017-11-08T11:11:03.013Z,1013.00
2017-11-08T11:12:02.581Z,1013.01
2017-11-08T11:13:02.616Z,1013.04
2017-11-08T11:14:02.541Z,1013.06
2017-11-08T11:15:02.538Z,1013.08
2017-11-08T11:16:02.507Z,1013.07
2017-11-08T11:17:02.480Z,1013.08
2017-11-08T11:18:02.505Z,1013.06
2017-11-08T11:19:02.439Z,1013.10
2017-11-08T11:20:02.435Z,1013.09
2017-11-08T11:21:02.408Z,1013.09
2017-11-08T11:22:02.378Z,1013.09
2017-11-08T11:23:02.394Z,1013.15
2017-11-08T11:24:02.353Z,1013.11
2017-11-08T11:25:02.371Z,1013.17
2017-11-08T11:26:02.301Z,1013.17
2017-11-08T11:27:02.281Z,1013.13
2017-11-08T11:28:02.259Z,1013.10
2017-11-08T11:29:02.241Z,1013.03
2017-11-08T11:30:02.313Z,1013.00
2017-11-08T11:31:02.205Z,1013.04
2017-11-08T11:32:02.181Z,1013.05
2017-11-08T11:33:02.161Z,1013.05
2017-11-08T11:34:02.172Z,1013.06
2017-11-08T11:35:02.169Z,1013.11
2017-11-08T11:36:02.111Z,1013.11
2017-11-08T11:37:02.089Z,1013.20
2017-11-08T11:38:02.096Z,1013.19
2017-11-08T11:39:02.051Z,1013.21
2017-11-08T11:40:02.063Z,1013.18
2017-11-08T11:41:02.018Z,1013.15
2017-11-08T11:42:01.986Z,1013.14
2017-11-08T11:43:01.964Z,1013.09
2017-11-08T11:44:01.954Z,1013.10
2017-11-08T11:45:01.966Z,1013.12
2017-11-08T11:46:01.905Z,1013.12
2017-11-08T11:47:01.924Z,1013.12
2017-11-08T11:48:01.862Z,1013.08
2017-11-08T11:49:01.850Z,1013.08
2017-11-08T11:50:01.830Z,1013.08
2017-11-08T11:51:01.846Z,1013.10
2017-11-08T11:52:01.785Z,1013.08
2017-11-08T11:53:01.764Z,1013.08
2017-11-08T11:54:01.782Z,1013.13
2017-11-08T11:55:01.743Z,1013.13
2017-11-08T11:56:01.748Z,1013.12
2017-11-08T11:57:01.750Z,1013.10
2017-11-08T11:58:01.674Z,1013.15
2017-11-08T11:59:01.652Z,1013.12
2017-11-08T12:00:01.655Z,1013.14
2017-11-08T12:01:01.610Z,1013.18
2017-11-08T12:02:01.651Z,1013.14
2017-11-08T12:03:01.590Z,1013.16
2017-11-08T12:04:01.554Z,1013.18
2017-11-08T12:05:01.534Z,1013.17